UTA358 URML-UTAA
Flight info
| Callsign | UTA358 |
|---|---|
| Flight time | 1h 29m |
| Altitude | 35000 |
| Route | BALIP B491 BISNA M23 MARAL B450 MAMED |
| Aircraft | B738/M-SDGIJ1LRWY/SB1 |
Departure
| Time | 2026-05-07 16:00 |
|---|---|
| Airport | Makhachkala Uytash International Airport (URML) |
Arrival
| Time | 2026-05-07 17:29 |
|---|---|
| Airport | Ashgabat International Airport (UTAA) |
| Time | Latitude | Longitude | Altitude | Speed | Heading |
|---|---|---|---|---|---|
| 2026-05-07 15:37 | 42.81964 | 47.65571 | 26 ft | 0 kts | 58° |
| 2026-05-07 15:51 | 42.81958 | 47.65558 | 26 ft | 2 kts | 56° |
| 2026-05-07 15:52 | 42.81950 | 47.65540 | 26 ft | 2 kts | 58° |
| 2026-05-07 15:52 | 42.81942 | 47.65523 | 26 ft | 2 kts | 57° |
| 2026-05-07 15:52 | 42.81934 | 47.65507 | 26 ft | 2 kts | 57° |
| 2026-05-07 15:52 | 42.81932 | 47.65488 | 26 ft | 2 kts | 117° |
| 2026-05-07 15:53 | 42.81943 | 47.65476 | 26 ft | 2 kts | 158° |
| 2026-05-07 15:53 | 42.81952 | 47.65469 | 26 ft | 0 kts | 146° |
| 2026-05-07 15:53 | 42.81954 | 47.65468 | 26 ft | 0 kts | 145° |
| 2026-05-07 15:55 | 42.81950 | 47.65471 | 26 ft | 2 kts | 144° |
| 2026-05-07 15:55 | 42.81919 | 47.65503 | 26 ft | 8 kts | 149° |
| 2026-05-07 15:55 | 42.81856 | 47.65561 | 26 ft | 13 kts | 137° |
| 2026-05-07 15:55 | 42.81779 | 47.65565 | 26 ft | 12 kts | 219° |
| 2026-05-07 15:56 | 42.81724 | 47.65482 | 26 ft | 11 kts | 237° |
| 2026-05-07 15:56 | 42.81683 | 47.65395 | 26 ft | 10 kts | 237° |
| 2026-05-07 15:56 | 42.81628 | 47.65318 | 26 ft | 13 kts | 189° |
| 2026-05-07 15:56 | 42.81529 | 47.65379 | 26 ft | 18 kts | 148° |
| 2026-05-07 15:57 | 42.81406 | 47.65479 | 26 ft | 22 kts | 150° |
| 2026-05-07 15:57 | 42.81256 | 47.65608 | 26 ft | 30 kts | 148° |
| 2026-05-07 15:57 | 42.81060 | 47.65773 | 26 ft | 34 kts | 149° |
| 2026-05-07 15:57 | 42.80862 | 47.65940 | 26 ft | 32 kts | 149° |
| 2026-05-07 15:58 | 42.80743 | 47.66093 | 26 ft | 15 kts | 124° |
| 2026-05-07 15:58 | 42.80711 | 47.66077 | 26 ft | 5 kts | 299° |
| 2026-05-07 15:58 | 42.80733 | 47.66047 | 26 ft | 4 kts | 326° |
| 2026-05-07 15:58 | 42.80764 | 47.66021 | 26 ft | 6 kts | 328° |
| 2026-05-07 15:59 | 42.80920 | 47.65888 | 26 ft | 57 kts | 326° |
| 2026-05-07 15:59 | 42.81434 | 47.65448 | 26 ft | 115 kts | 328° |
| 2026-05-07 15:59 | 42.82272 | 47.64745 | 27 ft | 163 kts | 329° |
| 2026-05-07 15:59 | 42.83265 | 47.63935 | 506 ft | 166 kts | 327° |
| 2026-05-07 16:00 | 42.84230 | 47.63124 | 1115 ft | 166 kts | 325° |
| 2026-05-07 16:00 | 42.85207 | 47.62271 | 1740 ft | 167 kts | 325° |
| 2026-05-07 16:00 | 42.86166 | 47.61436 | 2386 ft | 166 kts | 325° |
| 2026-05-07 16:00 | 42.87136 | 47.60601 | 3008 ft | 167 kts | 326° |
| 2026-05-07 16:01 | 42.88127 | 47.59755 | 3526 ft | 174 kts | 326° |
| 2026-05-07 16:01 | 42.89214 | 47.58925 | 3923 ft | 190 kts | 340° |
| 2026-05-07 16:01 | 42.90597 | 47.58990 | 4300 ft | 214 kts | 22° |
| 2026-05-07 16:01 | 42.91681 | 47.60402 | 4877 ft | 229 kts | 63° |
| 2026-05-07 16:02 | 42.91985 | 47.62526 | 5575 ft | 234 kts | 88° |
| 2026-05-07 16:02 | 42.92091 | 47.64736 | 6249 ft | 234 kts | 71° |
| 2026-05-07 16:02 | 42.92921 | 47.66573 | 6895 ft | 229 kts | 39° |
| 2026-05-07 16:02 | 42.94142 | 47.67942 | 7559 ft | 230 kts | 36° |
| 2026-05-07 16:03 | 42.95341 | 47.69364 | 8189 ft | 235 kts | 41° |
| 2026-05-07 16:03 | 42.96495 | 47.70948 | 8835 ft | 238 kts | 43° |
| 2026-05-07 16:03 | 42.97642 | 47.72614 | 9485 ft | 242 kts | 44° |
| 2026-05-07 16:03 | 42.98784 | 47.74280 | 9968 ft | 247 kts | 44° |
| 2026-05-07 16:04 | 42.99971 | 47.75998 | 10009 ft | 248 kts | 44° |
| 2026-05-07 16:04 | 43.01147 | 47.77696 | 9993 ft | 244 kts | 43° |
| 2026-05-07 16:04 | 43.02303 | 47.79376 | 9990 ft | 246 kts | 46° |
| 2026-05-07 16:04 | 43.03264 | 47.81347 | 9985 ft | 250 kts | 67° |
| 2026-05-07 16:05 | 43.03503 | 47.83675 | 9991 ft | 256 kts | 97° |
| 2026-05-07 16:05 | 43.02927 | 47.86037 | 10391 ft | 267 kts | 120° |
| 2026-05-07 16:05 | 43.01897 | 47.88083 | 11196 ft | 260 kts | 130° |
| 2026-05-07 16:05 | 43.00740 | 47.89948 | 11910 ft | 257 kts | 133° |
| 2026-05-07 16:06 | 42.99574 | 47.91752 | 12478 ft | 259 kts | 133° |
| 2026-05-07 16:06 | 42.98380 | 47.93613 | 13074 ft | 261 kts | 133° |
| 2026-05-07 16:06 | 42.97204 | 47.95473 | 13691 ft | 262 kts | 132° |
| 2026-05-07 16:06 | 42.96016 | 47.97368 | 14287 ft | 263 kts | 132° |
| 2026-05-07 16:07 | 42.94826 | 47.99273 | 14851 ft | 264 kts | 132° |
| 2026-05-07 16:07 | 42.93646 | 48.01160 | 15400 ft | 266 kts | 132° |
| 2026-05-07 16:07 | 42.92432 | 48.03099 | 15898 ft | 269 kts | 132° |
| 2026-05-07 16:07 | 42.91214 | 48.05024 | 16408 ft | 271 kts | 134° |
| 2026-05-07 16:08 | 42.89877 | 48.06863 | 16756 ft | 280 kts | 139° |
| 2026-05-07 16:08 | 42.88380 | 48.08700 | 16897 ft | 299 kts | 141° |
| 2026-05-07 16:08 | 42.86796 | 48.10603 | 17179 ft | 312 kts | 140° |
| 2026-05-07 16:08 | 42.85132 | 48.12628 | 17432 ft | 326 kts | 140° |
| 2026-05-07 16:09 | 42.83416 | 48.14746 | 17705 ft | 340 kts | 139° |
| 2026-05-07 16:09 | 42.81645 | 48.16949 | 17920 ft | 355 kts | 139° |
| 2026-05-07 16:09 | 42.79787 | 48.19268 | 18158 ft | 369 kts | 139° |
| 2026-05-07 16:09 | 42.77867 | 48.21663 | 18408 ft | 382 kts | 139° |
| 2026-05-07 16:10 | 42.75880 | 48.24139 | 18688 ft | 395 kts | 139° |
| 2026-05-07 16:10 | 42.73820 | 48.26703 | 18915 ft | 408 kts | 139° |
| 2026-05-07 16:10 | 42.71697 | 48.29343 | 19327 ft | 416 kts | 139° |
| 2026-05-07 16:10 | 42.69580 | 48.31974 | 19884 ft | 420 kts | 140° |
| 2026-05-07 16:11 | 42.67415 | 48.34661 | 20451 ft | 423 kts | 140° |
| 2026-05-07 16:11 | 42.65231 | 48.37368 | 21038 ft | 426 kts | 140° |
| 2026-05-07 16:11 | 42.63061 | 48.40055 | 21588 ft | 429 kts | 140° |
| 2026-05-07 16:11 | 42.60841 | 48.42800 | 22131 ft | 433 kts | 140° |
| 2026-05-07 16:12 | 42.58629 | 48.45533 | 22672 ft | 435 kts | 141° |
| 2026-05-07 16:12 | 42.56378 | 48.48312 | 23183 ft | 438 kts | 141° |
| 2026-05-07 16:12 | 42.54120 | 48.51097 | 23718 ft | 441 kts | 141° |
| 2026-05-07 16:12 | 42.51922 | 48.53953 | 24176 ft | 446 kts | 137° |
| 2026-05-07 16:13 | 42.49870 | 48.57162 | 24613 ft | 453 kts | 130° |
| 2026-05-07 16:13 | 42.48111 | 48.60669 | 25075 ft | 458 kts | 125° |
| 2026-05-07 16:13 | 42.46506 | 48.64471 | 25440 ft | 465 kts | 121° |
| 2026-05-07 16:13 | 42.45022 | 48.68360 | 25862 ft | 468 kts | 121° |
| 2026-05-07 16:14 | 42.43599 | 48.72289 | 26242 ft | 473 kts | 120° |
| 2026-05-07 16:14 | 42.42171 | 48.76325 | 26616 ft | 476 kts | 120° |
| 2026-05-07 16:14 | 42.40749 | 48.80368 | 26997 ft | 479 kts | 120° |
| 2026-05-07 16:14 | 42.39311 | 48.84438 | 27330 ft | 483 kts | 120° |
| 2026-05-07 16:15 | 42.37865 | 48.88502 | 27658 ft | 487 kts | 120° |
| 2026-05-07 16:15 | 42.36373 | 48.92658 | 28083 ft | 488 kts | 120° |
| 2026-05-07 16:15 | 42.34884 | 48.96782 | 28393 ft | 492 kts | 120° |
| 2026-05-07 16:15 | 42.33395 | 49.00881 | 28862 ft | 491 kts | 121° |
| 2026-05-07 16:16 | 42.31876 | 49.05048 | 29076 ft | 494 kts | 121° |
| 2026-05-07 16:16 | 42.28871 | 49.13258 | 29084 ft | 489 kts | 121° |
| 2026-05-07 16:17 | 42.25861 | 49.21441 | 29079 ft | 489 kts | 121° |
| 2026-05-07 16:17 | 42.22823 | 49.29665 | 29082 ft | 488 kts | 121° |
| 2026-05-07 16:18 | 42.19739 | 49.37839 | 29387 ft | 493 kts | 122° |
| 2026-05-07 16:18 | 42.18187 | 49.41903 | 29936 ft | 490 kts | 122° |
| 2026-05-07 16:18 | 42.16632 | 49.45965 | 30420 ft | 488 kts | 122° |
| 2026-05-07 16:18 | 42.15078 | 49.50015 | 30809 ft | 487 kts | 122° |
| 2026-05-07 16:19 | 42.13530 | 49.54046 | 31188 ft | 487 kts | 122° |
| 2026-05-07 16:19 | 42.11986 | 49.58064 | 31546 ft | 487 kts | 122° |
| 2026-05-07 16:19 | 42.10443 | 49.62080 | 31903 ft | 486 kts | 122° |
| 2026-05-07 16:19 | 42.08886 | 49.66128 | 32255 ft | 486 kts | 123° |
| 2026-05-07 16:20 | 42.07339 | 49.70149 | 32630 ft | 484 kts | 123° |
| 2026-05-07 16:20 | 42.05798 | 49.74152 | 32986 ft | 483 kts | 123° |
| 2026-05-07 16:20 | 42.04252 | 49.78163 | 33310 ft | 482 kts | 123° |
| 2026-05-07 16:20 | 42.02721 | 49.82123 | 33557 ft | 483 kts | 123° |
| 2026-05-07 16:21 | 42.01160 | 49.86157 | 33807 ft | 484 kts | 123° |
| 2026-05-07 16:21 | 41.99620 | 49.90127 | 34039 ft | 484 kts | 123° |
| 2026-05-07 16:21 | 41.98049 | 49.94177 | 34285 ft | 484 kts | 123° |
| 2026-05-07 16:21 | 41.96506 | 49.98152 | 34537 ft | 483 kts | 123° |
| 2026-05-07 16:22 | 41.94958 | 50.02132 | 34733 ft | 484 kts | 123° |
| 2026-05-07 16:22 | 41.93394 | 50.06150 | 34960 ft | 483 kts | 123° |
| 2026-05-07 16:22 | 41.91848 | 50.10114 | 35081 ft | 485 kts | 123° |
| 2026-05-07 16:23 | 41.88698 | 50.18167 | 35090 ft | 485 kts | 124° |
| 2026-05-07 16:23 | 41.85591 | 50.26100 | 35088 ft | 484 kts | 124° |
| 2026-05-07 16:24 | 41.82448 | 50.34100 | 35085 ft | 486 kts | 124° |
| 2026-05-07 16:24 | 41.79290 | 50.42113 | 35080 ft | 487 kts | 124° |
| 2026-05-07 16:25 | 41.76124 | 50.50130 | 35084 ft | 486 kts | 124° |
| 2026-05-07 16:25 | 41.72983 | 50.58061 | 35089 ft | 487 kts | 124° |
| 2026-05-07 16:26 | 41.69797 | 50.66077 | 35084 ft | 487 kts | 125° |
| 2026-05-07 16:26 | 41.66629 | 50.74035 | 35084 ft | 488 kts | 125° |
| 2026-05-07 16:27 | 41.63443 | 50.82009 | 35080 ft | 488 kts | 125° |
| 2026-05-07 16:27 | 41.60254 | 50.89975 | 35077 ft | 488 kts | 125° |
| 2026-05-07 16:28 | 41.57040 | 50.97975 | 35080 ft | 490 kts | 125° |
| 2026-05-07 16:28 | 41.53838 | 51.05927 | 35084 ft | 489 kts | 125° |
| 2026-05-07 16:29 | 41.50607 | 51.13926 | 35083 ft | 491 kts | 125° |
| 2026-05-07 16:29 | 41.47378 | 51.21904 | 35083 ft | 490 kts | 125° |
| 2026-05-07 16:30 | 41.44158 | 51.29841 | 35086 ft | 489 kts | 125° |
| 2026-05-07 16:30 | 41.40910 | 51.37817 | 35087 ft | 490 kts | 125° |
| 2026-05-07 16:31 | 41.37653 | 51.45789 | 35087 ft | 491 kts | 125° |
| 2026-05-07 16:31 | 41.34396 | 51.53757 | 35090 ft | 492 kts | 125° |
| 2026-05-07 16:32 | 41.31163 | 51.61722 | 35088 ft | 491 kts | 125° |
| 2026-05-07 16:32 | 41.27912 | 51.69737 | 35088 ft | 492 kts | 126° |
| 2026-05-07 16:33 | 41.24655 | 51.77745 | 35089 ft | 491 kts | 126° |
| 2026-05-07 16:33 | 41.21424 | 51.85657 | 35090 ft | 491 kts | 126° |
| 2026-05-07 16:34 | 41.18168 | 51.93605 | 35091 ft | 492 kts | 126° |
| 2026-05-07 16:34 | 41.14890 | 52.01578 | 35090 ft | 493 kts | 126° |
| 2026-05-07 16:35 | 41.11620 | 52.09515 | 35089 ft | 491 kts | 126° |
| 2026-05-07 16:35 | 41.08336 | 52.17468 | 35093 ft | 492 kts | 126° |
| 2026-05-07 16:36 | 41.05055 | 52.25388 | 35089 ft | 491 kts | 126° |
| 2026-05-07 16:36 | 41.01765 | 52.33307 | 35089 ft | 492 kts | 126° |
| 2026-05-07 16:37 | 40.98465 | 52.41231 | 35089 ft | 492 kts | 126° |
| 2026-05-07 16:37 | 40.95179 | 52.49103 | 35090 ft | 491 kts | 126° |
| 2026-05-07 16:38 | 40.91884 | 52.56975 | 35097 ft | 490 kts | 126° |
| 2026-05-07 16:38 | 40.88579 | 52.64843 | 35088 ft | 492 kts | 126° |
| 2026-05-07 16:39 | 40.85247 | 52.72725 | 35086 ft | 491 kts | 127° |
| 2026-05-07 16:39 | 40.81897 | 52.80611 | 35086 ft | 492 kts | 127° |
| 2026-05-07 16:40 | 40.78557 | 52.88465 | 35093 ft | 491 kts | 127° |
| 2026-05-07 16:40 | 40.75215 | 52.96306 | 35090 ft | 491 kts | 127° |
| 2026-05-07 16:41 | 40.71886 | 53.04093 | 35086 ft | 490 kts | 127° |
| 2026-05-07 16:41 | 40.68539 | 53.11904 | 35079 ft | 490 kts | 127° |
| 2026-05-07 16:42 | 40.65196 | 53.19684 | 35079 ft | 491 kts | 127° |
| 2026-05-07 16:42 | 40.61822 | 53.27513 | 35080 ft | 492 kts | 127° |
| 2026-05-07 16:43 | 40.58464 | 53.35294 | 35077 ft | 491 kts | 127° |
| 2026-05-07 16:43 | 40.55082 | 53.43105 | 35079 ft | 492 kts | 127° |
| 2026-05-07 16:44 | 40.51712 | 53.50868 | 35075 ft | 492 kts | 127° |
| 2026-05-07 16:44 | 40.48319 | 53.58673 | 35074 ft | 491 kts | 127° |
| 2026-05-07 16:45 | 40.44939 | 53.66421 | 35072 ft | 492 kts | 128° |
| 2026-05-07 16:45 | 40.41539 | 53.74196 | 35072 ft | 491 kts | 128° |
| 2026-05-07 16:46 | 40.38140 | 53.81943 | 35070 ft | 493 kts | 128° |
| 2026-05-07 16:46 | 40.34730 | 53.89700 | 35063 ft | 492 kts | 127° |
| 2026-05-07 16:47 | 40.31311 | 53.97454 | 35062 ft | 493 kts | 128° |
| 2026-05-07 16:47 | 40.27874 | 54.05230 | 35063 ft | 494 kts | 128° |
| 2026-05-07 16:48 | 40.24469 | 54.12922 | 35066 ft | 493 kts | 127° |
| 2026-05-07 16:48 | 40.21022 | 54.20684 | 35068 ft | 493 kts | 127° |
| 2026-05-07 16:49 | 40.17594 | 54.28389 | 35073 ft | 492 kts | 127° |
| 2026-05-07 16:49 | 40.14153 | 54.36099 | 35070 ft | 493 kts | 127° |
| 2026-05-07 16:50 | 40.10685 | 54.43849 | 35067 ft | 492 kts | 127° |
| 2026-05-07 16:50 | 40.07251 | 54.51507 | 35066 ft | 494 kts | 127° |
| 2026-05-07 16:51 | 40.03774 | 54.59234 | 35063 ft | 494 kts | 127° |
| 2026-05-07 16:51 | 40.00318 | 54.66909 | 35061 ft | 492 kts | 128° |
| 2026-05-07 16:52 | 39.96858 | 54.74569 | 35057 ft | 493 kts | 128° |
| 2026-05-07 16:52 | 39.93388 | 54.82225 | 35054 ft | 492 kts | 128° |
| 2026-05-07 16:53 | 39.89909 | 54.89887 | 35048 ft | 492 kts | 128° |
| 2026-05-07 16:53 | 39.86423 | 54.97545 | 35049 ft | 492 kts | 128° |
| 2026-05-07 16:54 | 39.82932 | 55.05194 | 35043 ft | 495 kts | 128° |
| 2026-05-07 16:54 | 39.79489 | 55.12891 | 35029 ft | 496 kts | 127° |
| 2026-05-07 16:55 | 39.76089 | 55.20652 | 35036 ft | 497 kts | 126° |
| 2026-05-07 16:55 | 39.72669 | 55.28458 | 35033 ft | 497 kts | 126° |
| 2026-05-07 16:56 | 39.69247 | 55.36229 | 35036 ft | 497 kts | 126° |
| 2026-05-07 16:56 | 39.63977 | 55.47808 | 35032 ft | 497 kts | 127° |
| 2026-05-07 16:57 | 39.60421 | 55.55464 | 35036 ft | 497 kts | 128° |
| 2026-05-07 16:57 | 39.56886 | 55.63062 | 35034 ft | 497 kts | 127° |
| 2026-05-07 16:58 | 39.53330 | 55.70709 | 35035 ft | 496 kts | 128° |
| 2026-05-07 16:58 | 39.49764 | 55.78374 | 35040 ft | 497 kts | 128° |
| 2026-05-07 16:59 | 39.46212 | 55.86047 | 35038 ft | 500 kts | 127° |
| 2026-05-07 16:59 | 39.42708 | 55.93742 | 35036 ft | 498 kts | 127° |
| 2026-05-07 17:00 | 39.39199 | 56.01457 | 35033 ft | 499 kts | 127° |
| 2026-05-07 17:00 | 39.35682 | 56.09158 | 35030 ft | 499 kts | 127° |
| 2026-05-07 17:01 | 39.32160 | 56.16837 | 35033 ft | 499 kts | 127° |
| 2026-05-07 17:01 | 39.28636 | 56.24494 | 35035 ft | 499 kts | 127° |
| 2026-05-07 17:02 | 39.25083 | 56.32191 | 35035 ft | 500 kts | 127° |
| 2026-05-07 17:02 | 39.21517 | 56.39899 | 35035 ft | 500 kts | 127° |
| 2026-05-07 17:03 | 39.17960 | 56.47567 | 35034 ft | 501 kts | 127° |
| 2026-05-07 17:03 | 39.14399 | 56.55225 | 35034 ft | 500 kts | 127° |
| 2026-05-07 17:04 | 39.10832 | 56.62881 | 35039 ft | 500 kts | 127° |
| 2026-05-07 17:04 | 39.07268 | 56.70509 | 35034 ft | 498 kts | 127° |
| 2026-05-07 17:05 | 39.05497 | 56.74298 | 34763 ft | 496 kts | 127° |
| 2026-05-07 17:05 | 39.03716 | 56.78102 | 34246 ft | 496 kts | 127° |
| 2026-05-07 17:05 | 39.01938 | 56.81881 | 33558 ft | 505 kts | 127° |
| 2026-05-07 17:05 | 39.00106 | 56.85760 | 32742 ft | 514 kts | 127° |
| 2026-05-07 17:06 | 38.98252 | 56.89686 | 31875 ft | 518 kts | 126° |
| 2026-05-07 17:06 | 38.96402 | 56.93611 | 30951 ft | 513 kts | 126° |
| 2026-05-07 17:06 | 38.94597 | 56.97462 | 30480 ft | 492 kts | 126° |
| 2026-05-07 17:06 | 38.92886 | 57.01122 | 29962 ft | 477 kts | 126° |
| 2026-05-07 17:07 | 38.91188 | 57.04747 | 29408 ft | 462 kts | 126° |
| 2026-05-07 17:07 | 38.89574 | 57.08181 | 28886 ft | 449 kts | 126° |
| 2026-05-07 17:07 | 38.87980 | 57.11562 | 28402 ft | 441 kts | 127° |
| 2026-05-07 17:07 | 38.86397 | 57.14895 | 27866 ft | 438 kts | 126° |
| 2026-05-07 17:08 | 38.84810 | 57.18228 | 27355 ft | 435 kts | 126° |
| 2026-05-07 17:08 | 38.83242 | 57.21517 | 26843 ft | 432 kts | 126° |
| 2026-05-07 17:08 | 38.81683 | 57.24783 | 26331 ft | 429 kts | 126° |
| 2026-05-07 17:08 | 38.80148 | 57.28001 | 25825 ft | 426 kts | 126° |
| 2026-05-07 17:09 | 38.78603 | 57.31238 | 25317 ft | 423 kts | 126° |
| 2026-05-07 17:09 | 38.77080 | 57.34427 | 24810 ft | 420 kts | 126° |
| 2026-05-07 17:09 | 38.75571 | 57.37583 | 24290 ft | 418 kts | 126° |
| 2026-05-07 17:09 | 38.74046 | 57.40773 | 23771 ft | 414 kts | 126° |
| 2026-05-07 17:10 | 38.72570 | 57.43860 | 23245 ft | 403 kts | 126° |
| 2026-05-07 17:10 | 38.71127 | 57.46883 | 22831 ft | 397 kts | 126° |
| 2026-05-07 17:10 | 38.69686 | 57.49887 | 22294 ft | 399 kts | 126° |
| 2026-05-07 17:10 | 38.68234 | 57.52908 | 21790 ft | 396 kts | 126° |
| 2026-05-07 17:11 | 38.66822 | 57.55846 | 21306 ft | 393 kts | 126° |
| 2026-05-07 17:11 | 38.65390 | 57.58824 | 20805 ft | 390 kts | 126° |
| 2026-05-07 17:11 | 38.63974 | 57.61766 | 20310 ft | 387 kts | 126° |
| 2026-05-07 17:11 | 38.62556 | 57.64648 | 19975 ft | 378 kts | 127° |
| 2026-05-07 17:12 | 38.61043 | 57.67331 | 19716 ft | 370 kts | 133° |
| 2026-05-07 17:12 | 38.59408 | 57.69822 | 19470 ft | 368 kts | 136° |
| 2026-05-07 17:12 | 38.57704 | 57.72236 | 19052 ft | 361 kts | 137° |
| 2026-05-07 17:12 | 38.56018 | 57.74558 | 18672 ft | 351 kts | 138° |
| 2026-05-07 17:13 | 38.54358 | 57.76815 | 18280 ft | 352 kts | 137° |
| 2026-05-07 17:13 | 38.52691 | 57.79088 | 17870 ft | 349 kts | 137° |
| 2026-05-07 17:13 | 38.51063 | 57.81325 | 17469 ft | 346 kts | 137° |
| 2026-05-07 17:13 | 38.49429 | 57.83585 | 17064 ft | 343 kts | 137° |
| 2026-05-07 17:14 | 38.47821 | 57.85816 | 16669 ft | 342 kts | 137° |
| 2026-05-07 17:14 | 38.46227 | 57.88032 | 16272 ft | 340 kts | 137° |
| 2026-05-07 17:14 | 38.44633 | 57.90247 | 15869 ft | 338 kts | 137° |
| 2026-05-07 17:14 | 38.43057 | 57.92438 | 15474 ft | 335 kts | 137° |
| 2026-05-07 17:15 | 38.41480 | 57.94628 | 15076 ft | 332 kts | 137° |
| 2026-05-07 17:15 | 38.39930 | 57.96778 | 14685 ft | 329 kts | 137° |
| 2026-05-07 17:15 | 38.38379 | 57.98929 | 14297 ft | 326 kts | 137° |
| 2026-05-07 17:15 | 38.36859 | 58.01026 | 13870 ft | 318 kts | 138° |
| 2026-05-07 17:16 | 38.35390 | 58.03063 | 13530 ft | 313 kts | 137° |
| 2026-05-07 17:16 | 38.33930 | 58.05083 | 13128 ft | 312 kts | 138° |
| 2026-05-07 17:16 | 38.32454 | 58.07121 | 12740 ft | 310 kts | 137° |
| 2026-05-07 17:16 | 38.30999 | 58.09130 | 12354 ft | 308 kts | 137° |
| 2026-05-07 17:17 | 38.29552 | 58.11124 | 11958 ft | 306 kts | 137° |
| 2026-05-07 17:17 | 38.28117 | 58.13100 | 11566 ft | 304 kts | 137° |
| 2026-05-07 17:17 | 38.26709 | 58.15047 | 11162 ft | 295 kts | 137° |
| 2026-05-07 17:17 | 38.25334 | 58.16948 | 10780 ft | 286 kts | 137° |
| 2026-05-07 17:18 | 38.24020 | 58.18768 | 10399 ft | 278 kts | 137° |
| 2026-05-07 17:18 | 38.22738 | 58.20532 | 10046 ft | 269 kts | 137° |
| 2026-05-07 17:18 | 38.21476 | 58.22263 | 9720 ft | 261 kts | 137° |
| 2026-05-07 17:18 | 38.20268 | 58.23922 | 9394 ft | 253 kts | 137° |
| 2026-05-07 17:19 | 38.19080 | 58.25552 | 9057 ft | 247 kts | 136° |
| 2026-05-07 17:19 | 38.17935 | 58.27122 | 8764 ft | 244 kts | 136° |
| 2026-05-07 17:19 | 38.16786 | 58.28694 | 8433 ft | 243 kts | 135° |
| 2026-05-07 17:19 | 38.15636 | 58.30270 | 8139 ft | 242 kts | 135° |
| 2026-05-07 17:20 | 38.14494 | 58.31834 | 7862 ft | 240 kts | 134° |
| 2026-05-07 17:20 | 38.13374 | 58.33369 | 7578 ft | 239 kts | 134° |
| 2026-05-07 17:20 | 38.12258 | 58.34900 | 7281 ft | 234 kts | 134° |
| 2026-05-07 17:20 | 38.11154 | 58.36414 | 7006 ft | 228 kts | 133° |
| 2026-05-07 17:21 | 38.10086 | 58.37876 | 6709 ft | 223 kts | 133° |
| 2026-05-07 17:21 | 38.09046 | 58.39297 | 6439 ft | 217 kts | 132° |
| 2026-05-07 17:21 | 38.08031 | 58.40685 | 6151 ft | 216 kts | 131° |
| 2026-05-07 17:21 | 38.07021 | 58.42068 | 5876 ft | 210 kts | 131° |
| 2026-05-07 17:22 | 38.06046 | 58.43397 | 5662 ft | 203 kts | 131° |
| 2026-05-07 17:22 | 38.05092 | 58.44700 | 5415 ft | 201 kts | 131° |
| 2026-05-07 17:22 | 38.04154 | 58.45980 | 5168 ft | 198 kts | 131° |
| 2026-05-07 17:22 | 38.03210 | 58.47268 | 4924 ft | 196 kts | 131° |
| 2026-05-07 17:23 | 38.02288 | 58.48526 | 4681 ft | 194 kts | 130° |
| 2026-05-07 17:23 | 38.01381 | 58.49763 | 4456 ft | 191 kts | 130° |
| 2026-05-07 17:23 | 38.00481 | 58.50988 | 4210 ft | 188 kts | 131° |
| 2026-05-07 17:23 | 37.99593 | 58.52198 | 3993 ft | 187 kts | 131° |
| 2026-05-07 17:24 | 37.98701 | 58.53413 | 3778 ft | 189 kts | 131° |
| 2026-05-07 17:24 | 37.97807 | 58.54630 | 3559 ft | 189 kts | 131° |
| 2026-05-07 17:24 | 37.96909 | 58.55853 | 3340 ft | 189 kts | 131° |
| 2026-05-07 17:24 | 37.95964 | 58.56983 | 3124 ft | 190 kts | 144° |
| 2026-05-07 17:25 | 37.94706 | 58.57493 | 2923 ft | 191 kts | 184° |
| 2026-05-07 17:25 | 37.93470 | 58.56967 | 2742 ft | 189 kts | 215° |
| 2026-05-07 17:25 | 37.92523 | 58.55858 | 2549 ft | 184 kts | 237° |
| 2026-05-07 17:25 | 37.92062 | 58.54405 | 2506 ft | 179 kts | 259° |
| 2026-05-07 17:26 | 37.91937 | 58.52817 | 2496 ft | 180 kts | 278° |
| 2026-05-07 17:26 | 37.92340 | 58.51378 | 2513 ft | 167 kts | 301° |
| 2026-05-07 17:26 | 37.92931 | 58.50174 | 2511 ft | 157 kts | 301° |
| 2026-05-07 17:26 | 37.93472 | 58.48986 | 2488 ft | 153 kts | 299° |
| 2026-05-07 17:27 | 37.93992 | 58.47808 | 2415 ft | 155 kts | 300° |
| 2026-05-07 17:27 | 37.94522 | 58.46630 | 2169 ft | 152 kts | 299° |
| 2026-05-07 17:27 | 37.95045 | 58.45463 | 1991 ft | 151 kts | 299° |
| 2026-05-07 17:27 | 37.95556 | 58.44314 | 1787 ft | 150 kts | 298° |
| 2026-05-07 17:28 | 37.96071 | 58.43166 | 1589 ft | 149 kts | 298° |
| 2026-05-07 17:28 | 37.96582 | 58.42020 | 1397 ft | 149 kts | 298° |
| 2026-05-07 17:28 | 37.97092 | 58.40878 | 1204 ft | 148 kts | 298° |
| 2026-05-07 17:28 | 37.97593 | 58.39756 | 1013 ft | 148 kts | 297° |
| 2026-05-07 17:29 | 37.98093 | 58.38630 | 821 ft | 148 kts | 297° |
| 2026-05-07 17:29 | 37.98601 | 58.37495 | 694 ft | 144 kts | 297° |
| 2026-05-07 17:29 | 37.99016 | 58.36570 | 690 ft | 88 kts | 297° |
| 2026-05-07 17:29 | 37.99224 | 58.36092 | 689 ft | 48 kts | 299° |
| 2026-05-07 17:30 | 37.99328 | 58.35854 | 688 ft | 21 kts | 295° |
| 2026-05-07 17:30 | 37.99354 | 58.35672 | 688 ft | 20 kts | 273° |
| 2026-05-07 17:30 | 37.99336 | 58.35501 | 688 ft | 19 kts | 225° |
| 2026-05-07 17:30 | 37.99263 | 58.35498 | 690 ft | 8 kts | 142° |
| 2026-05-07 17:31 | 37.99229 | 58.35560 | 691 ft | 10 kts | 117° |
| 2026-05-07 17:31 | 37.99183 | 58.35663 | 692 ft | 16 kts | 120° |
| 2026-05-07 17:31 | 37.99117 | 58.35811 | 691 ft | 22 kts | 119° |
| 2026-05-07 17:31 | 37.99028 | 58.36010 | 690 ft | 27 kts | 119° |
| 2026-05-07 17:32 | 37.98934 | 58.36219 | 689 ft | 27 kts | 119° |
| 2026-05-07 17:32 | 37.98841 | 58.36431 | 689 ft | 26 kts | 119° |
| 2026-05-07 17:32 | 37.98759 | 58.36614 | 692 ft | 17 kts | 128° |
| 2026-05-07 17:32 | 37.98699 | 58.36645 | 693 ft | 12 kts | 186° |
| 2026-05-07 17:33 | 37.98622 | 58.36710 | 694 ft | 10 kts | 118° |
| 2026-05-07 17:33 | 37.98577 | 58.36785 | 695 ft | 9 kts | 170° |
| 2026-05-07 17:33 | 37.98516 | 58.36761 | 695 ft | 8 kts | 195° |
| 2026-05-07 17:33 | 37.98486 | 58.36751 | 695 ft | 0 kts | 194° |